Terminal Aerodrome Forecast
Issued by NWS Nashville, TN

Home | Current Version | Previous Version | Text Only | Print | Product List | Glossary On
Versions: 1 2 3 4 5 6 7 8 9 10 11 12 13 14 15 16 17 18 19 20 21 22 23 24 25 26 27 28 29 30 31 32 33 34 35 36 37 38 39
057
FTUS44 KOHX 220939 AAD
TAFBNA
TAF AMD
KBNA 220939Z 2210/2306 29005KT 6SM -RA SCT002 BKN040 OVC110
      TEMPO 2210/2212 5SM -RA BR OVC002
     FM221500 19008KT 3SM SHRA OVC009
     FM222300 14006KT 5SM BR VCSH OVC015=

USA.gov is the U.S. government's official web portal to all federal, state and local government web resources and services.